Time;durP1;ratioP1;P1;durP2;ratioP2;P2;SDS_P1;SDS_P2;PMS_P1;PMS_P2;Temp;Humidity;BMP_temperature;BMP_pressure;BME280_temperature;BME280_humidity;BME280_pressure;Samples;Min_cycle;Max_cycle;Signal;HPM_P1;HPM_P2
2023/05/12 00:00:01;;;;;;;4.63;2.35;;;12.40;99.90;;;;;;4970586;28;20034;-65
2023/05/12 00:02:27;;;;;;;4.40;2.30;;;12.40;99.90;;;;;;4967339;28;20023;-65
2023/05/12 00:04:53;;;;;;;6.15;2.63;;;12.50;99.90;;;;;;4972072;28;20109;-65
2023/05/12 00:07:19;;;;;;;6.82;2.35;;;12.40;99.90;;;;;;4950265;28;20114;-65
2023/05/12 00:09:44;;;;;;;4.13;2.05;;;12.40;99.90;;;;;;4971759;28;20049;-65
2023/05/12 00:12:11;;;;;;;8.75;3.05;;;12.30;99.90;;;;;;4967028;28;20542;-65
2023/05/12 00:14:37;;;;;;;6.78;2.80;;;12.30;99.90;;;;;;4956341;28;20062;-65
2023/05/12 00:17:05;;;;;;;8.82;2.95;;;12.40;99.90;;;;;;4969278;28;20390;-65
2023/05/12 00:19:32;;;;;;;4.47;2.30;;;12.40;99.90;;;;;;4969850;28;20454;-65
2023/05/12 00:21:58;;;;;;;6.47;3.03;;;12.30;99.90;;;;;;4970316;28;20475;-65
2023/05/12 00:24:24;;;;;;;5.57;3.47;;;12.30;99.90;;;;;;4968798;28;20047;-65
2023/05/12 00:26:51;;;;;;;7.50;2.70;;;12.40;99.90;;;;;;4971911;28;20052;-65
2023/05/12 00:29:17;;;;;;;7.85;2.95;;;12.30;99.90;;;;;;4966536;28;20034;-65
2023/05/12 00:31:42;;;;;;;5.80;3.42;;;12.30;99.90;;;;;;4972036;28;20577;-65
2023/05/12 00:34:08;;;;;;;5.82;2.78;;;12.30;99.90;;;;;;4967138;28;20030;-65
2023/05/12 00:36:34;;;;;;;5.60;2.63;;;12.30;99.90;;;;;;4971686;28;20035;-65
2023/05/12 00:39:00;;;;;;;5.68;2.50;;;12.30;99.90;;;;;;4967060;28;20403;-65
2023/05/12 00:41:25;;;;;;;7.20;2.70;;;12.40;99.90;;;;;;4973829;28;20367;-65
2023/05/12 00:43:51;;;;;;;7.03;3.72;;;12.30;99.90;;;;;;4971074;28;20097;-65
2023/05/12 00:46:18;;;;;;;7.35;3.65;;;12.40;99.90;;;;;;4975832;28;20110;-65
2023/05/12 00:48:44;;;;;;;7.53;2.95;;;12.40;99.90;;;;;;4970784;28;20034;-65
2023/05/12 00:51:12;;;;;;;4.90;2.83;;;12.40;99.90;;;;;;4974071;28;20479;-65
2023/05/12 00:53:38;;;;;;;7.00;2.70;;;12.40;99.90;;;;;;4969406;28;20030;-65
2023/05/12 00:56:04;;;;;;;6.65;3.17;;;12.40;99.90;;;;;;4974395;28;20042;-65
2023/05/12 00:58:30;;;;;;;10.63;3.40;;;12.50;99.90;;;;;;4970671;28;20049;-65
2023/05/12 01:00:56;;;;;;;6.03;2.55;;;12.40;99.90;;;;;;4971520;28;20507;-65
2023/05/12 01:03:22;;;;;;;8.25;4.05;;;12.30;99.90;;;;;;4969924;28;20066;-63
2023/05/12 01:05:54;;;;;;;7.78;3.03;;;12.40;99.90;;;;;;4947954;28;20114;-64
2023/05/12 01:08:20;;;;;;;5.95;2.92;;;12.40;99.90;;;;;;4946258;28;20027;-63
2023/05/12 01:10:46;;;;;;;13.68;3.95;;;12.40;99.90;;;;;;4962724;28;20031;-64
2023/05/12 01:13:12;;;;;;;6.43;3.60;;;12.40;99.90;;;;;;4961719;28;20125;-64
2023/05/12 01:15:46;;;;;;;12.10;4.13;;;12.40;99.90;;;;;;4966137;28;20411;-64
2023/05/12 01:18:15;;;;;;;9.07;3.63;;;12.30;99.90;;;;;;4960377;28;20399;-64
2023/05/12 01:20:43;;;;;;;8.43;3.60;;;12.40;99.90;;;;;;4974840;28;20034;-63
2023/05/12 01:23:10;;;;;;;6.72;3.30;;;12.40;99.90;;;;;;4969900;28;20042;-64
2023/05/12 01:25:38;;;;;;;4.25;2.40;;;12.40;99.90;;;;;;4958068;28;20030;-63
2023/05/12 01:28:04;;;;;;;5.88;2.95;;;12.40;99.90;;;;;;4969202;28;20045;-63
2023/05/12 01:30:32;;;;;;;5.88;3.30;;;12.30;99.90;;;;;;4973281;28;20110;-63
2023/05/12 01:32:58;;;;;;;6.18;2.92;;;12.20;99.90;;;;;;4968897;28;20058;-63
2023/05/12 01:35:24;;;;;;;7.25;3.30;;;12.30;99.90;;;;;;4973582;28;20062;-63
2023/05/12 01:37:50;;;;;;;6.63;2.90;;;12.20;99.90;;;;;;4969763;28;20081;-63
2023/05/12 01:40:16;;;;;;;7.50;2.90;;;12.30;99.90;;;;;;4972921;28;20023;-63
2023/05/12 01:42:42;;;;;;;7.03;3.20;;;12.20;99.90;;;;;;4957462;28;20044;-66
2023/05/12 01:45:09;;;;;;;7.57;3.42;;;12.20;99.90;;;;;;4973336;28;20054;-63
2023/05/12 01:47:35;;;;;;;8.07;3.72;;;12.20;99.90;;;;;;4969839;28;20047;-63
2023/05/12 01:50:01;;;;;;;5.28;2.80;;;12.30;99.90;;;;;;4974336;28;20027;-63
2023/05/12 01:52:27;;;;;;;7.70;3.83;;;12.20;99.90;;;;;;4969084;28;20119;-64
2023/05/12 01:54:53;;;;;;;8.43;3.85;;;12.20;99.90;;;;;;4974557;28;20122;-63
2023/05/12 01:57:19;;;;;;;7.22;3.38;;;12.30;99.90;;;;;;4969886;28;20554;-63
2023/05/12 01:59:45;;;;;;;6.85;3.10;;;12.30;99.90;;;;;;4973218;28;20027;-63
2023/05/12 02:02:11;;;;;;;7.45;3.65;;;12.30;99.90;;;;;;4969287;28;20038;-63
2023/05/12 02:04:37;;;;;;;10.88;3.20;;;12.30;99.90;;;;;;4974300;28;20026;-63
2023/05/12 02:07:03;;;;;;;11.20;4.28;;;12.30;99.90;;;;;;4971528;28;20471;-63
2023/05/12 02:09:28;;;;;;;9.20;3.63;;;12.30;99.90;;;;;;4970874;28;20037;-63
2023/05/12 02:11:54;;;;;;;8.95;3.65;;;12.30;99.90;;;;;;4973300;28;20080;-63
2023/05/12 02:14:20;;;;;;;9.23;3.88;;;12.30;99.90;;;;;;4969208;28;20030;-63
2023/05/12 02:16:49;;;;;;;11.40;3.73;;;12.40;99.90;;;;;;4953870;29;20049;-63
2023/05/12 02:19:15;;;;;;;10.50;3.80;;;12.40;99.90;;;;;;4968752;28;20287;-63
2023/05/12 02:21:40;;;;;;;10.15;4.07;;;12.40;99.90;;;;;;4974245;28;20058;-63
2023/05/12 02:24:06;;;;;;;6.55;2.88;;;12.30;99.90;;;;;;4968151;28;20049;-63
2023/05/12 02:26:32;;;;;;;11.30;4.38;;;12.30;99.90;;;;;;4972757;28;20066;-63
2023/05/12 02:28:58;;;;;;;6.32;2.80;;;12.20;99.90;;;;;;4969070;28;20395;-65
2023/05/12 02:31:24;;;;;;;7.60;3.45;;;12.20;99.90;;;;;;4972520;28;20030;-65
2023/05/12 02:33:50;;;;;;;8.20;3.53;;;12.20;99.90;;;;;;4967087;28;20078;-63
2023/05/12 02:36:16;;;;;;;7.65;3.35;;;12.20;99.90;;;;;;4973765;28;20083;-64
2023/05/12 02:38:41;;;;;;;9.43;3.88;;;12.30;99.90;;;;;;4968679;28;20039;-64
2023/05/12 02:41:07;;;;;;;7.80;3.58;;;12.30;99.90;;;;;;4973692;28;20042;-64
2023/05/12 02:43:33;;;;;;;10.57;3.65;;;12.40;99.90;;;;;;4968790;28;20049;-64
2023/05/12 02:45:58;;;;;;;10.15;4.18;;;12.30;99.90;;;;;;4973612;28;20030;-64
2023/05/12 02:48:24;;;;;;;7.70;2.92;;;12.20;99.90;;;;;;4968714;28;20479;-64
2023/05/12 02:50:50;;;;;;;12.25;4.75;;;12.20;99.90;;;;;;4971855;28;20066;-64
2023/05/12 02:53:15;;;;;;;7.93;3.80;;;12.20;99.90;;;;;;4981719;23;20061;-61
2023/05/12 02:55:41;;;;;;;6.70;4.03;;;12.20;99.90;;;;;;4983075;28;20033;-61
2023/05/12 02:58:07;;;;;;;7.18;3.63;;;12.20;99.90;;;;;;4983185;28;20082;-61
2023/05/12 03:00:33;;;;;;;7.97;2.78;;;12.20;99.90;;;;;;4991611;28;20112;-61
2023/05/12 03:02:58;;;;;;;7.00;3.55;;;12.20;99.90;;;;;;4984232;28;20176;-62
2023/05/12 03:05:24;;;;;;;7.88;3.88;;;12.10;99.90;;;;;;4989190;28;20026;-62
2023/05/12 03:07:50;;;;;;;8.50;3.30;;;12.00;99.90;;;;;;4987227;28;20158;-62
2023/05/12 03:10:17;;;;;;;6.43;3.45;;;12.10;99.90;;;;;;4987020;28;20076;-62
2023/05/12 03:12:43;;;;;;;5.20;3.03;;;12.20;99.90;;;;;;4987826;28;20049;-62
2023/05/12 03:15:10;;;;;;;7.15;3.58;;;12.10;99.90;;;;;;4980346;28;20031;-62
2023/05/12 03:17:35;;;;;;;9.02;3.70;;;12.10;99.90;;;;;;4953799;28;20082;-62
2023/05/12 03:20:02;;;;;;;8.15;3.15;;;12.10;99.90;;;;;;4986296;28;20030;-62
2023/05/12 03:22:28;;;;;;;6.10;2.88;;;12.00;99.90;;;;;;4992328;28;20460;-62
2023/05/12 03:24:54;;;;;;;6.63;3.92;;;12.00;99.90;;;;;;4976824;28;20034;-63
2023/05/12 03:27:20;;;;;;;4.82;2.85;;;12.10;99.90;;;;;;4992223;28;20046;-62
2023/05/12 03:29:46;;;;;;;8.45;3.75;;;12.10;99.90;;;;;;4981250;28;20069;-62
2023/05/12 03:32:12;;;;;;;7.22;3.30;;;12.10;99.90;;;;;;4992055;28;20065;-63
2023/05/12 03:34:38;;;;;;;11.02;3.83;;;12.10;99.90;;;;;;4981671;28;20053;-62
2023/05/12 03:37:04;;;;;;;7.88;3.42;;;12.00;99.90;;;;;;4992050;28;20042;-61
2023/05/12 03:39:30;;;;;;;8.48;4.03;;;12.00;99.90;;;;;;4980779;28;20398;-60
2023/05/12 03:41:55;;;;;;;7.13;3.15;;;12.00;99.90;;;;;;4984558;28;20035;-61
2023/05/12 03:44:21;;;;;;;8.60;3.72;;;12.00;99.90;;;;;;4976238;28;20034;-61
2023/05/12 03:46:47;;;;;;;6.07;3.05;;;12.10;99.90;;;;;;4991850;28;20030;-61
2023/05/12 03:49:13;;;;;;;7.75;3.10;;;12.20;99.90;;;;;;4980235;28;20046;-62
2023/05/12 03:51:38;;;;;;;8.02;3.85;;;12.20;99.90;;;;;;4991778;28;20030;-61
2023/05/12 03:54:04;;;;;;;10.68;4.13;;;12.20;99.90;;;;;;4980263;28;20381;-61
2023/05/12 03:56:30;;;;;;;9.02;3.83;;;12.20;99.90;;;;;;4991673;28;20022;-61
2023/05/12 03:58:56;;;;;;;12.95;4.18;;;12.20;99.90;;;;;;4980144;28;20034;-61
2023/05/12 04:01:22;;;;;;;8.30;4.35;;;12.20;99.90;;;;;;4990294;28;20034;-62
2023/05/12 04:03:47;;;;;;;5.72;2.80;;;12.10;99.90;;;;;;4980160;28;20034;-61
2023/05/12 04:06:13;;;;;;;7.00;3.47;;;12.20;99.90;;;;;;4991565;28;20041;-61
2023/05/12 04:08:39;;;;;;;8.32;3.95;;;12.20;99.90;;;;;;4979753;28;20122;-61
2023/05/12 04:11:05;;;;;;;7.28;3.25;;;12.20;99.90;;;;;;4990021;28;20059;-61
2023/05/12 04:13:31;;;;;;;8.00;3.78;;;12.20;99.90;;;;;;4980073;28;20100;-61
2023/05/12 04:15:58;;;;;;;9.70;3.45;;;12.20;99.90;;;;;;4983839;28;20037;-61
2023/05/12 04:18:26;;;;;;;7.75;3.72;;;12.10;99.90;;;;;;4972237;28;20098;-61
2023/05/12 04:20:53;;;;;;;8.15;3.33;;;12.10;99.90;;;;;;4933069;28;20042;-62
2023/05/12 04:23:19;;;;;;;13.93;4.00;;;12.20;99.90;;;;;;4963906;28;20027;-61
2023/05/12 04:25:44;;;;;;;6.97;3.15;;;12.10;99.90;;;;;;4967432;28;20034;-61
2023/05/12 04:28:10;;;;;;;9.63;5.00;;;12.10;99.90;;;;;;4961490;28;20073;-61
2023/05/12 04:30:39;;;;;;;10.57;4.40;;;12.20;99.90;;;;;;4967089;28;20027;-61
2023/05/12 04:33:05;;;;;;;8.93;3.97;;;12.30;99.90;;;;;;4962828;28;20051;-62
2023/05/12 04:35:31;;;;;;;19.23;10.07;;;12.40;99.90;;;;;;4962032;28;20035;-61
2023/05/12 04:37:57;;;;;;;59.05;24.02;;;12.40;99.90;;;;;;4977378;28;20767;-61
2023/05/12 04:40:23;;;;;;;9.30;4.55;;;12.30;99.90;;;;;;4976197;28;20038;-62
2023/05/12 04:42:48;;;;;;;8.52;4.03;;;12.50;99.90;;;;;;4962700;28;20035;-62
2023/05/12 04:45:14;;;;;;;9.20;5.00;;;12.50;99.90;;;;;;4985387;28;20037;-62
2023/05/12 04:47:40;;;;;;;11.35;5.32;;;12.60;99.90;;;;;;4973663;28;20098;-62
2023/05/12 04:50:07;;;;;;;10.98;4.10;;;12.40;99.90;;;;;;4982901;28;20045;-62
2023/05/12 04:52:32;;;;;;;16.50;3.95;;;12.50;99.90;;;;;;4988581;28;20041;-62
2023/05/12 04:54:58;;;;;;;11.45;4.55;;;12.50;99.90;;;;;;4955851;28;20391;-62
2023/05/12 04:57:24;;;;;;;8.90;4.05;;;12.50;99.90;;;;;;4959246;28;20094;-62
2023/05/12 04:59:49;;;;;;;11.48;3.42;;;12.50;99.90;;;;;;4966966;28;20031;-62
2023/05/12 05:02:15;;;;;;;10.98;3.80;;;12.50;99.90;;;;;;4984033;28;20049;-61
2023/05/12 05:04:41;;;;;;;10.05;3.92;;;12.50;99.90;;;;;;4965459;28;20022;-61
2023/05/12 05:07:07;;;;;;;7.43;3.50;;;12.50;99.90;;;;;;4963892;28;20356;-61
2023/05/12 05:09:33;;;;;;;11.27;3.97;;;12.60;99.90;;;;;;4959110;28;20073;-62
2023/05/12 05:11:58;;;;;;;10.60;4.82;;;12.60;99.90;;;;;;4990813;28;20073;-62
2023/05/12 05:14:24;;;;;;;8.75;3.90;;;12.60;99.90;;;;;;4960036;28;20510;-63
2023/05/12 05:16:50;;;;;;;11.07;4.65;;;12.70;99.90;;;;;;4966557;28;20030;-63
2023/05/12 05:19:17;;;;;;;9.00;4.45;;;12.70;99.90;;;;;;4967156;28;20061;-63
2023/05/12 05:21:43;;;;;;;16.52;5.15;;;12.90;99.90;;;;;;4963833;28;20509;-62
2023/05/12 05:24:10;;;;;;;11.48;4.97;;;13.00;99.90;;;;;;4959183;28;20034;-62
2023/05/12 05:26:36;;;;;;;12.35;4.80;;;12.90;99.90;;;;;;4953677;28;20109;-64
2023/05/12 05:29:03;;;;;;;10.95;5.65;;;13.10;99.90;;;;;;4960654;28;20031;-62
2023/05/12 05:31:29;;;;;;;13.48;4.55;;;13.20;99.90;;;;;;4971608;28;20026;-63
2023/05/12 05:33:55;;;;;;;14.13;5.30;;;13.20;99.90;;;;;;4968737;28;20059;-62
2023/05/12 05:36:22;;;;;;;15.73;5.15;;;13.30;99.90;;;;;;4980922;28;20030;-62
2023/05/12 05:38:48;;;;;;;10.88;5.18;;;13.40;99.90;;;;;;4990118;28;20473;-63
2023/05/12 05:41:14;;;;;;;11.68;4.10;;;13.40;99.90;;;;;;4977201;28;20045;-63
2023/05/12 05:43:40;;;;;;;13.18;4.65;;;13.40;99.90;;;;;;4972481;28;20134;-62
2023/05/12 05:46:07;;;;;;;7.32;3.47;;;13.50;99.90;;;;;;4969531;28;20138;-62
2023/05/12 05:48:35;;;;;;;10.18;4.55;;;13.40;99.90;;;;;;4987885;28;20030;-62
2023/05/12 05:51:01;;;;;;;12.73;4.47;;;13.40;99.90;;;;;;4983010;28;20100;-62
2023/05/12 05:53:27;;;;;;;9.57;4.75;;;13.40;99.90;;;;;;4992472;28;20081;-62
2023/05/12 05:55:53;;;;;;;8.13;3.97;;;13.50;99.90;;;;;;4983281;28;20038;-63
2023/05/12 05:58:21;;;;;;;9.15;3.95;;;13.50;99.90;;;;;;4992187;28;20034;-62
2023/05/12 06:00:47;;;;;;;9.23;3.63;;;13.60;99.90;;;;;;4968473;28;20458;-62
2023/05/12 06:03:13;;;;;;;10.38;3.78;;;13.50;99.90;;;;;;4978456;28;20046;-62
2023/05/12 06:05:41;;;;;;;8.18;3.72;;;13.50;99.90;;;;;;4987023;28;20389;-62
2023/05/12 06:08:12;;;;;;;6.55;3.30;;;13.50;99.90;;;;;;4996802;28;20073;-63
2023/05/12 06:10:39;;;;;;;8.65;3.95;;;13.60;99.90;;;;;;4982056;28;20402;-62
2023/05/12 06:13:06;;;;;;;8.02;4.00;;;13.60;99.90;;;;;;4977101;28;20044;-62
2023/05/12 06:15:32;;;;;;;8.82;3.33;;;13.60;99.90;;;;;;4987839;28;20053;-63
2023/05/12 06:17:58;;;;;;;9.82;5.00;;;13.40;99.90;;;;;;4969365;28;20037;-62
2023/05/12 06:20:24;;;;;;;7.65;3.33;;;13.40;99.90;;;;;;4970182;28;20042;-62
2023/05/12 06:22:51;;;;;;;7.72;3.75;;;13.50;99.90;;;;;;4967749;28;20057;-63
2023/05/12 06:25:17;;;;;;;9.48;3.20;;;13.60;99.90;;;;;;4965728;28;20031;-63
2023/05/12 06:27:43;;;;;;;8.95;3.40;;;13.40;99.90;;;;;;4977978;28;20034;-63
2023/05/12 06:30:10;;;;;;;7.45;3.80;;;13.50;99.90;;;;;;4976026;28;20035;-63
2023/05/12 06:32:36;;;;;;;11.82;4.32;;;13.60;99.90;;;;;;4982187;28;20038;-63
2023/05/12 06:35:02;;;;;;;6.80;3.55;;;13.40;99.90;;;;;;4972559;28;20067;-63
2023/05/12 06:37:28;;;;;;;7.80;3.58;;;13.50;99.90;;;;;;4989509;28;20066;-63
2023/05/12 06:39:54;;;;;;;7.85;4.25;;;13.60;99.90;;;;;;4980443;28;20113;-63
2023/05/12 06:42:20;;;;;;;9.63;4.70;;;13.60;99.90;;;;;;4965437;28;20729;-63
2023/05/12 06:44:46;;;;;;;8.38;4.18;;;13.70;99.90;;;;;;4963285;28;20034;-63
2023/05/12 06:47:12;;;;;;;15.77;5.88;;;13.90;99.90;;;;;;4985286;28;20040;-63
2023/05/12 06:49:38;;;;;;;13.82;5.85;;;13.90;99.90;;;;;;4984423;28;20110;-63
2023/05/12 06:52:05;;;;;;;6.57;2.63;;;13.90;99.90;;;;;;4983037;28;20110;-63
2023/05/12 06:54:32;;;;;;;5.35;2.88;;;14.00;99.90;;;;;;4984650;28;20026;-63
2023/05/12 06:56:58;;;;;;;5.32;3.15;;;14.00;99.90;;;;;;4981125;28;20561;-63
2023/05/12 06:59:24;;;;;;;8.32;2.53;;;14.00;99.90;;;;;;4988512;28;20042;-63
2023/05/12 07:01:50;;;;;;;5.97;2.65;;;14.00;99.90;;;;;;4978794;28;20057;-63
2023/05/12 07:04:16;;;;;;;6.32;3.17;;;14.10;99.90;;;;;;4999047;28;20452;-63
2023/05/12 07:06:42;;;;;;;5.90;2.40;;;14.10;99.90;;;;;;4976580;28;20026;-63
2023/05/12 07:09:08;;;;;;;6.38;3.30;;;14.00;99.90;;;;;;4975143;28;20122;-63
2023/05/12 07:11:34;;;;;;;6.55;3.28;;;14.10;99.90;;;;;;4975245;28;20076;-63
2023/05/12 07:14:00;;;;;;;5.93;2.72;;;14.30;99.90;;;;;;4982325;28;20494;-63
2023/05/12 07:16:26;;;;;;;13.13;2.97;;;14.30;99.90;;;;;;4987541;28;20133;-63
2023/05/12 07:18:51;;;;;;;7.22;2.40;;;14.50;99.90;;;;;;4990409;28;20126;-63
2023/05/12 07:21:17;;;;;;;5.43;2.45;;;14.30;99.90;;;;;;4986146;28;20525;-63
2023/05/12 07:23:43;;;;;;;5.70;2.53;;;14.30;99.90;;;;;;4982006;28;20041;-63
2023/05/12 07:26:09;;;;;;;3.17;1.60;;;14.20;99.90;;;;;;4971582;28;20648;-63
2023/05/12 07:28:35;;;;;;;6.28;1.90;;;14.30;99.90;;;;;;4999920;28;20054;-63
2023/05/12 07:31:06;;;;;;;4.97;1.60;;;14.30;99.90;;;;;;4975406;28;20544;-63
2023/05/12 07:33:33;;;;;;;3.50;1.90;;;14.20;99.90;;;;;;4960453;28;20041;-63
2023/05/12 07:35:59;;;;;;;8.57;1.83;;;14.20;99.90;;;;;;4978514;28;20027;-63
2023/05/12 07:38:25;;;;;;;3.40;2.00;;;14.40;99.90;;;;;;4970765;28;20456;-63
2023/05/12 07:40:51;;;;;;;4.72;1.88;;;14.60;99.90;;;;;;4982522;28;20100;-63
2023/05/12 07:43:17;;;;;;;3.35;1.67;;;14.70;99.90;;;;;;4969500;28;20086;-63
2023/05/12 07:45:44;;;;;;;2.42;1.40;;;14.90;99.90;;;;;;4970176;28;20027;-63
2023/05/12 07:48:12;;;;;;;3.55;1.77;;;14.90;99.90;;;;;;4973133;28;20402;-63
2023/05/12 07:50:38;;;;;;;3.00;1.48;;;14.70;99.90;;;;;;4974288;28;20038;-63
2023/05/12 07:53:04;;;;;;;4.57;2.10;;;14.50;99.90;;;;;;4976121;28;20117;-62
2023/05/12 07:55:34;;;;;;;1.95;1.20;;;14.70;99.90;;;;;;4977299;28;20265;-63
2023/05/12 07:57:59;;;;;;;3.10;1.70;;;14.60;99.90;;;;;;4965372;28;20064;-63
2023/05/12 08:00:26;;;;;;;4.47;1.85;;;14.60;99.90;;;;;;4955909;28;20402;-63
2023/05/12 08:02:52;;;;;;;6.15;2.40;;;14.60;99.90;;;;;;4966016;28;20038;-63
2023/05/12 08:05:18;;;;;;;3.30;1.92;;;14.50;99.90;;;;;;4963409;28;20038;-63
2023/05/12 08:07:45;;;;;;;2.47;1.65;;;14.80;99.90;;;;;;4957605;28;20067;-62
2023/05/12 08:10:11;;;;;;;4.25;2.13;;;14.70;99.90;;;;;;4963787;28;20035;-63
2023/05/12 08:12:41;;;;;;;4.22;2.00;;;14.80;99.90;;;;;;4954170;28;20521;-63
2023/05/12 08:15:08;;;;;;;3.15;1.85;;;14.70;99.90;;;;;;4955887;28;20319;-63
2023/05/12 08:17:34;;;;;;;4.22;1.95;;;14.80;99.90;;;;;;4978961;28;20054;-63
2023/05/12 08:20:02;;;;;;;4.05;1.73;;;14.80;99.90;;;;;;4963624;28;20038;-63
2023/05/12 08:22:29;;;;;;;4.63;1.92;;;14.70;99.90;;;;;;4971666;28;20027;-63
2023/05/12 08:24:54;;;;;;;13.85;2.60;;;14.80;99.90;;;;;;4963882;28;20041;-62
2023/05/12 08:27:20;;;;;;;6.47;2.53;;;15.10;99.90;;;;;;4959989;28;20042;-62
2023/05/12 08:29:46;;;;;;;4.80;2.00;;;15.30;99.90;;;;;;4961620;28;20050;-62
2023/05/12 08:32:12;;;;;;;3.50;1.88;;;15.50;99.90;;;;;;4969675;28;20434;-63
2023/05/12 08:34:38;;;;;;;2.85;1.60;;;15.30;99.90;;;;;;4984067;28;20038;-63
2023/05/12 08:37:05;;;;;;;3.28;1.65;;;15.70;99.90;;;;;;4961867;28;20564;-63
2023/05/12 08:39:32;;;;;;;4.85;2.53;;;15.80;99.90;;;;;;4966329;28;20617;-63
2023/05/12 08:42:05;;;;;;;6.05;2.08;;;16.00;99.90;;;;;;4968248;28;20036;-62
2023/05/12 08:44:32;;;;;;;4.95;2.00;;;15.90;99.90;;;;;;4976844;28;20030;-63
2023/05/12 08:47:00;;;;;;;3.20;2.08;;;16.10;99.90;;;;;;4973470;28;20046;-63
2023/05/12 08:49:30;;;;;;;5.40;2.40;;;15.90;99.90;;;;;;4967245;28;20035;-63
2023/05/12 08:51:58;;;;;;;2.85;1.75;;;15.90;99.90;;;;;;4977304;28;20033;-63
2023/05/12 08:54:27;;;;;;;4.10;2.38;;;16.00;99.90;;;;;;4970756;23;20047;-69
2023/05/12 08:56:54;;;;;;;6.97;1.90;;;16.00;99.90;;;;;;4973446;28;20372;-68
2023/05/12 08:59:19;;;;;;;2.42;1.60;;;16.30;99.90;;;;;;4950683;28;20037;-69
2023/05/12 09:01:47;;;;;;;5.93;1.95;;;16.30;99.90;;;;;;4971060;28;20027;-68
2023/05/12 09:04:14;;;;;;;3.95;2.28;;;16.20;99.90;;;;;;4982037;28;20585;-69
2023/05/12 09:06:42;;;;;;;4.07;2.00;;;16.70;99.90;;;;;;4974089;28;20070;-69
2023/05/12 09:09:09;;;;;;;6.20;2.35;;;16.70;99.90;;;;;;4964931;28;20070;-69
2023/05/12 09:11:34;;;;;;;4.80;2.25;;;17.00;99.90;;;;;;4972231;28;20042;-70
2023/05/12 09:14:07;;;;;;;3.20;2.00;;;17.00;99.90;;;;;;4969992;28;20458;-70
2023/05/12 09:16:41;;;;;;;2.92;1.73;;;16.60;99.90;;;;;;4973187;28;20034;-70
2023/05/12 09:19:07;;;;;;;4.35;2.10;;;16.80;99.90;;;;;;4967589;28;20070;-68
2023/05/12 09:21:33;;;;;;;3.20;1.98;;;16.70;99.90;;;;;;4965996;28;20055;-68
2023/05/12 09:24:05;;;;;;;10.52;2.97;;;16.50;99.90;;;;;;4957967;28;20059;-69
2023/05/12 09:26:52;;;;;;;3.65;1.98;;;16.20;99.90;;;;;;4967245;28;20035;-69
2023/05/12 09:29:19;;;;;;;4.55;2.65;;;16.30;99.90;;;;;;4958732;28;20089;-69
2023/05/12 09:31:52;;;;;;;3.30;1.83;;;15.90;99.90;;;;;;4972913;28;20609;-69
2023/05/12 09:34:29;;;;;;;3.10;2.00;;;16.10;99.90;;;;;;4965896;28;20070;-69
2023/05/12 09:37:01;;;;;;;7.25;2.10;;;16.30;99.90;;;;;;4972383;28;20027;-69
2023/05/12 09:39:27;;;;;;;4.50;2.20;;;16.10;99.90;;;;;;4949562;28;20027;-70
2023/05/12 09:41:54;;;;;;;4.47;2.40;;;16.50;99.90;;;;;;4973181;28;20474;-69
2023/05/12 09:44:22;;;;;;;3.63;1.95;;;16.90;99.90;;;;;;4969238;28;20027;-70
2023/05/12 09:46:48;;;;;;;4.32;2.20;;;16.80;99.90;;;;;;4971796;28;20031;-70
2023/05/12 09:49:24;;;;;;;5.18;1.58;;;16.80;99.90;;;;;;4969041;28;20088;-69
2023/05/12 09:51:57;;;;;;;3.28;1.60;;;16.80;99.90;;;;;;4971764;28;20113;-69
2023/05/12 09:54:30;;;;;;;2.83;1.77;;;16.80;99.90;;;;;;4967735;28;20130;-69
2023/05/12 09:57:03;;;;;;;4.57;1.60;;;16.50;99.90;;;;;;4971874;28;20057;-69
2023/05/12 09:59:34;;;;;;;11.02;2.53;;;16.70;99.90;;;;;;4968870;28;20035;-69
2023/05/12 10:02:04;;;;;;;4.18;1.73;;;16.60;99.90;;;;;;4971478;28;20031;-69
2023/05/12 10:04:48;;;;;;;3.42;1.95;;;16.70;99.90;;;;;;4966018;28;20118;-69
2023/05/12 10:07:17;;;;;;;5.32;1.50;;;16.80;99.90;;;;;;4971699;28;20098;-69
2023/05/12 10:09:44;;;;;;;4.55;1.63;;;17.10;99.90;;;;;;4964185;28;20039;-69
2023/05/12 10:12:10;;;;;;;3.78;2.00;;;16.80;99.90;;;;;;4971122;28;20413;-69
2023/05/12 10:14:37;;;;;;;4.78;1.80;;;16.60;99.90;;;;;;4968715;28;20031;-70
2023/05/12 10:17:05;;;;;;;2.42;1.77;;;16.80;99.90;;;;;;4971179;28;20085;-70
2023/05/12 10:19:32;;;;;;;3.95;1.58;;;17.10;99.90;;;;;;4967378;28;20043;-70
2023/05/12 10:21:57;;;;;;;4.78;1.88;;;17.00;99.90;;;;;;4963040;28;20164;-69
2023/05/12 10:24:27;;;;;;;3.28;1.58;;;16.60;99.90;;;;;;4962265;28;20527;-70
2023/05/12 10:26:58;;;;;;;3.17;1.90;;;17.00;99.90;;;;;;4971360;28;20530;-69
2023/05/12 10:29:28;;;;;;;3.55;1.75;;;17.20;99.90;;;;;;4951366;28;20038;-69
2023/05/12 10:32:00;;;;;;;2.15;1.35;;;16.40;99.90;;;;;;4955249;28;20102;-69
2023/05/12 10:34:34;;;;;;;7.35;1.73;;;16.60;99.90;;;;;;4942864;28;20034;-68
2023/05/12 10:37:02;;;;;;;2.45;1.52;;;17.00;99.90;;;;;;4970899;28;20113;-69
2023/05/12 10:39:31;;;;;;;10.45;2.17;;;17.00;99.90;;;;;;4967892;28;20073;-71
2023/05/12 10:42:05;;;;;;;3.38;1.45;;;16.90;99.90;;;;;;4968112;28;20055;-68
2023/05/12 10:44:31;;;;;;;2.67;1.63;;;16.90;99.90;;;;;;4946847;28;20042;-71
2023/05/12 10:46:58;;;;;;;4.55;1.55;;;16.50;99.90;;;;;;4947139;28;20070;-69
2023/05/12 10:49:38;;;;;;;3.22;2.03;;;16.10;99.90;;;;;;4949464;28;20127;-72
2023/05/12 10:52:06;;;;;;;6.47;1.70;;;16.10;99.90;;;;;;4945783;28;20661;-70
2023/05/12 10:54:42;;;;;;;4.10;2.17;;;16.20;99.90;;;;;;4961083;28;20126;-69
2023/05/12 10:57:19;;;;;;;4.22;1.70;;;16.30;99.90;;;;;;4968864;28;20522;-69
2023/05/12 10:59:56;;;;;;;3.00;1.65;;;16.10;99.90;;;;;;4953623;28;20089;-69
2023/05/12 11:02:27;;;;;;;2.75;1.63;;;16.00;99.90;;;;;;4967841;28;20512;-69
2023/05/12 11:04:57;;;;;;;4.55;2.15;;;15.90;99.90;;;;;;4967601;28;20499;-69
2023/05/12 11:07:31;;;;;;;4.18;1.90;;;15.90;99.90;;;;;;4971206;28;20031;-68
2023/05/12 11:10:02;;;;;;;2.78;1.67;;;16.10;99.90;;;;;;4956323;28;20085;-69
2023/05/12 11:12:34;;;;;;;;;;;16.20;99.90;;;;;;4972262;28;20419;-69
2023/05/12 11:15:02;;;;;;;2.95;1.33;;;16.00;99.90;;;;;;4983977;28;20008;-70
2023/05/12 11:17:29;;;;;;;4.13;1.73;;;16.10;99.90;;;;;;4950119;28;20114;-70
2023/05/12 11:19:55;;;;;;;2.88;1.83;;;16.30;99.90;;;;;;4955865;28;20039;-69
2023/05/12 11:22:22;;;;;;;3.38;1.65;;;16.50;99.90;;;;;;4968202;28;20023;-68
2023/05/12 11:24:51;;;;;;;4.13;1.83;;;17.00;99.90;;;;;;4967510;28;20038;-68
2023/05/12 11:27:19;;;;;;;2.55;1.38;;;17.20;99.90;;;;;;4971337;28;20030;-69
2023/05/12 11:29:59;;;;;;;3.80;1.80;;;17.20;99.90;;;;;;4967754;28;20109;-68
2023/05/12 11:32:24;;;;;;;2.97;1.65;;;16.90;99.90;;;;;;4969973;28;20018;-69
2023/05/12 11:34:50;;;;;;;3.53;1.50;;;17.00;99.90;;;;;;4966774;28;20043;-70
2023/05/12 11:37:19;;;;;;;3.00;1.50;;;17.60;99.90;;;;;;4969841;28;20026;-68
2023/05/12 11:39:45;;;;;;;3.15;1.70;;;17.70;99.90;;;;;;4968901;28;20446;-68
2023/05/12 11:42:11;;;;;;;7.50;1.65;;;17.90;99.90;;;;;;4970989;28;20023;-69
2023/05/12 11:44:49;;;;;;;3.13;1.35;;;17.90;99.90;;;;;;4969201;28;20038;-69
2023/05/12 11:47:16;;;;;;;3.38;1.95;;;18.00;99.90;;;;;;4969596;28;20085;-69
2023/05/12 11:49:50;;;;;;;2.75;1.48;;;17.90;99.90;;;;;;4950594;28;20033;-69
2023/05/12 11:52:20;;;;;;;5.25;1.50;;;18.10;99.90;;;;;;4969254;28;20097;-70
2023/05/12 11:54:59;;;;;;;3.03;1.50;;;18.40;99.90;;;;;;4968775;28;20027;-69
2023/05/12 11:57:34;;;;;;;5.18;1.75;;;18.20;99.90;;;;;;4970752;28;20478;-69
2023/05/12 12:00:04;;;;;;;4.32;1.80;;;18.50;99.90;;;;;;4968641;28;20117;-68
2023/05/12 12:02:29;;;;;;;2.17;1.20;;;18.30;99.90;;;;;;4969523;28;20033;-69
2023/05/12 12:04:56;;;;;;;3.30;1.48;;;18.30;99.90;;;;;;4965999;28;20030;-69
2023/05/12 12:07:34;;;;;;;4.88;1.92;;;18.70;99.90;;;;;;4970173;28;20043;-69
2023/05/12 12:10:17;;;;;;;4.20;1.60;;;18.70;99.90;;;;;;4955586;28;20027;-69
2023/05/12 12:12:44;;;;;;;2.38;1.35;;;18.60;99.90;;;;;;4971666;28;20071;-69
2023/05/12 12:15:11;;;;;;;6.72;2.20;;;18.20;99.90;;;;;;4967495;28;20027;-69
2023/05/12 12:17:38;;;;;;;3.17;1.67;;;18.60;99.90;;;;;;4951131;28;20043;-70
2023/05/12 12:20:05;;;;;;;4.90;2.28;;;18.80;99.90;;;;;;4969032;28;20065;-69
2023/05/12 12:22:33;;;;;;;3.72;1.60;;;18.80;99.90;;;;;;4955814;28;20086;-58
2023/05/12 12:25:00;;;;;;;2.72;1.40;;;19.00;99.90;;;;;;4965283;28;20054;-75
2023/05/12 12:27:25;;;;;;;2.85;1.42;;;18.80;99.90;;;;;;4967766;28;20045;-69
2023/05/12 12:29:51;;;;;;;3.22;1.20;;;18.60;99.90;;;;;;4964168;28;20027;-69
2023/05/12 12:32:17;;;;;;;1.98;1.48;;;18.60;99.90;;;;;;4969969;28;20031;-69
2023/05/12 12:34:45;;;;;;;2.92;1.00;;;18.50;99.90;;;;;;4959268;28;20033;-69
2023/05/12 12:37:11;;;;;;;5.75;1.80;;;18.50;99.90;;;;;;4947376;28;20110;-69
2023/05/12 12:39:36;;;;;;;2.58;1.35;;;18.40;99.90;;;;;;4975985;28;20062;-68
2023/05/12 12:42:03;;;;;;;2.72;1.33;;;18.40;99.90;;;;;;4969736;28;20034;-68
2023/05/12 12:44:29;;;;;;;6.15;1.98;;;18.20;99.90;;;;;;4962253;28;20391;-69